sensor_id;sensor_type;location;lat;lon;timestamp;pressure;altitude;pressure_sealevel;temperature;humidity
67980;BME280;54760;47.490;19.030;2023-04-10T00:01:36;100835.69;;;7.27;67.43
67980;BME280;54760;47.490;19.030;2023-04-10T00:04:02;100839.03;;;7.10;68.18
67980;BME280;54760;47.490;19.030;2023-04-10T00:06:29;100833.13;;;7.01;68.69
67980;BME280;54760;47.490;19.030;2023-04-10T00:08:56;100835.22;;;6.74;70.04
67980;BME280;54760;47.490;19.030;2023-04-10T00:11:21;100829.25;;;7.02;68.69
67980;BME280;54760;47.490;19.030;2023-04-10T00:13:46;100830.75;;;6.95;69.23
67980;BME280;54760;47.490;19.030;2023-04-10T00:16:12;100829.22;;;7.53;67.33
67980;BME280;54760;47.490;19.030;2023-04-10T00:18:37;100826.34;;;7.28;68.21
67980;BME280;54760;47.490;19.030;2023-04-10T00:21:03;100827.47;;;6.79;69.87
67980;BME280;54760;47.490;19.030;2023-04-10T00:23:28;100827.09;;;6.40;71.27
67980;BME280;54760;47.490;19.030;2023-04-10T00:25:56;100824.25;;;6.63;70.22
67980;BME280;54760;47.490;19.030;2023-04-10T00:28:22;100817.22;;;7.03;68.79
67980;BME280;54760;47.490;19.030;2023-04-10T00:30:47;100822.97;;;6.53;70.19
67980;BME280;54760;47.490;19.030;2023-04-10T00:33:13;100815.63;;;6.98;68.76
67980;BME280;54760;47.490;19.030;2023-04-10T00:35:38;100820.06;;;6.73;69.06
67980;BME280;54760;47.490;19.030;2023-04-10T00:38:04;100820.28;;;6.20;72.16
67980;BME280;54760;47.490;19.030;2023-04-10T00:40:29;100822.38;;;6.34;71.66
67980;BME280;54760;47.490;19.030;2023-04-10T00:42:55;100815.53;;;6.47;69.90
67980;BME280;54760;47.490;19.030;2023-04-10T00:45:21;100815.16;;;6.48;70.91
67980;BME280;54760;47.490;19.030;2023-04-10T00:47:46;100808.25;;;6.58;70.42
67980;BME280;54760;47.490;19.030;2023-04-10T00:50:12;100809.44;;;6.24;71.46
67980;BME280;54760;47.490;19.030;2023-04-10T00:52:37;100807.31;;;6.40;70.99
67980;BME280;54760;47.490;19.030;2023-04-10T00:55:03;100805.09;;;6.96;68.98
67980;BME280;54760;47.490;19.030;2023-04-10T00:57:29;100804.00;;;6.61;69.84
67980;BME280;54760;47.490;19.030;2023-04-10T00:59:55;100806.00;;;6.67;69.91
67980;BME280;54760;47.490;19.030;2023-04-10T01:02:20;100794.62;;;6.55;70.61
67980;BME280;54760;47.490;19.030;2023-04-10T01:04:46;100805.50;;;6.55;70.26
67980;BME280;54760;47.490;19.030;2023-04-10T01:07:34;100793.69;;;7.28;67.95
67980;BME280;54760;47.490;19.030;2023-04-10T01:13:31;100795.91;;;7.19;67.39
67980;BME280;54760;47.490;19.030;2023-04-10T01:16:11;100795.12;;;7.15;68.00
67980;BME280;54760;47.490;19.030;2023-04-10T01:18:46;100794.91;;;6.86;67.98
67980;BME280;54760;47.490;19.030;2023-04-10T01:21:14;100787.72;;;7.12;67.46
67980;BME280;54760;47.490;19.030;2023-04-10T01:24:04;100789.87;;;6.88;68.27
67980;BME280;54760;47.490;19.030;2023-04-10T01:29:28;100791.53;;;6.19;72.15
67980;BME280;54760;47.490;19.030;2023-04-10T01:32:02;100782.50;;;6.89;69.64
67980;BME280;54760;47.490;19.030;2023-04-10T01:34:38;100786.31;;;6.84;69.85
67980;BME280;54760;47.490;19.030;2023-04-10T01:37:09;100781.84;;;7.06;68.48
67980;BME280;54760;47.490;19.030;2023-04-10T01:39:38;100788.84;;;7.04;68.84
67980;BME280;54760;47.490;19.030;2023-04-10T01:42:06;100780.19;;;6.94;68.98
67980;BME280;54760;47.490;19.030;2023-04-10T01:44:35;100790.03;;;7.10;68.70
67980;BME280;54760;47.490;19.030;2023-04-10T01:47:03;100787.16;;;6.88;69.17
67980;BME280;54760;47.490;19.030;2023-04-10T01:49:31;100794.34;;;7.14;68.36
67980;BME280;54760;47.490;19.030;2023-04-10T01:51:59;100790.22;;;6.83;69.50
67980;BME280;54760;47.490;19.030;2023-04-10T01:54:28;100797.94;;;6.78;69.80
67980;BME280;54760;47.490;19.030;2023-04-10T01:56:57;100794.72;;;6.65;70.54
67980;BME280;54760;47.490;19.030;2023-04-10T01:59:23;100788.78;;;6.96;69.70
67980;BME280;54760;47.490;19.030;2023-04-10T02:01:55;100792.16;;;6.42;71.98
67980;BME280;54760;47.490;19.030;2023-04-10T02:04:31;100789.91;;;6.92;70.08
67980;BME280;54760;47.490;19.030;2023-04-10T02:07:57;100802.19;;;6.75;70.95
67980;BME280;54760;47.490;19.030;2023-04-10T02:10:32;100795.03;;;6.60;71.24
67980;BME280;54760;47.490;19.030;2023-04-10T02:13:04;100793.37;;;6.45;71.90
67980;BME280;54760;47.490;19.030;2023-04-10T02:15:31;100791.59;;;5.93;74.37
67980;BME280;54760;47.490;19.030;2023-04-10T02:17:58;100797.00;;;6.23;73.42
67980;BME280;54760;47.490;19.030;2023-04-10T02:20:25;100794.09;;;6.82;71.09
67980;BME280;54760;47.490;19.030;2023-04-10T02:22:52;100789.69;;;5.67;76.10
67980;BME280;54760;47.490;19.030;2023-04-10T02:25:18;100794.75;;;5.68;76.44
67980;BME280;54760;47.490;19.030;2023-04-10T02:27:47;100783.06;;;5.91;75.69
67980;BME280;54760;47.490;19.030;2023-04-10T02:30:12;100790.13;;;5.69;76.03
67980;BME280;54760;47.490;19.030;2023-04-10T02:32:38;100789.50;;;6.13;74.45
67980;BME280;54760;47.490;19.030;2023-04-10T02:35:03;100787.28;;;5.88;75.61
67980;BME280;54760;47.490;19.030;2023-04-10T02:37:29;100788.03;;;5.59;77.26
67980;BME280;54760;47.490;19.030;2023-04-10T02:39:55;100787.66;;;5.87;75.57
67980;BME280;54760;47.490;19.030;2023-04-10T02:42:21;100787.41;;;5.69;76.83
67980;BME280;54760;47.490;19.030;2023-04-10T02:44:47;100783.91;;;5.98;75.33
67980;BME280;54760;47.490;19.030;2023-04-10T02:47:12;100779.91;;;5.89;75.75
67980;BME280;54760;47.490;19.030;2023-04-10T02:49:38;100772.56;;;5.89;75.29
67980;BME280;54760;47.490;19.030;2023-04-10T02:52:03;100777.56;;;6.21;73.73
67980;BME280;54760;47.490;19.030;2023-04-10T02:54:29;100768.34;;;5.95;74.84
67980;BME280;54760;47.490;19.030;2023-04-10T02:56:55;100768.91;;;6.12;74.39
67980;BME280;54760;47.490;19.030;2023-04-10T02:59:21;100770.16;;;6.18;73.99
67980;BME280;54760;47.490;19.030;2023-04-10T03:01:47;100768.97;;;5.85;75.40
67980;BME280;54760;47.490;19.030;2023-04-10T03:04:13;100765.03;;;5.79;76.08
67980;BME280;54760;47.490;19.030;2023-04-10T03:06:38;100763.41;;;6.04;75.13
67980;BME280;54760;47.490;19.030;2023-04-10T03:09:04;100762.53;;;5.67;75.62
67980;BME280;54760;47.490;19.030;2023-04-10T03:11:30;100756.34;;;5.66;76.21
67980;BME280;54760;47.490;19.030;2023-04-10T03:13:55;100762.22;;;5.42;77.60
67980;BME280;54760;47.490;19.030;2023-04-10T03:16:23;100754.97;;;5.83;76.47
67980;BME280;54760;47.490;19.030;2023-04-10T03:18:49;100756.28;;;5.63;77.18
67980;BME280;54760;47.490;19.030;2023-04-10T03:21:14;100760.03;;;6.15;74.02
67980;BME280;54760;47.490;19.030;2023-04-10T03:23:40;100765.47;;;6.15;74.40
67980;BME280;54760;47.490;19.030;2023-04-10T03:26:06;100770.34;;;5.72;76.68
67980;BME280;54760;47.490;19.030;2023-04-10T03:28:31;100774.81;;;5.01;79.56
67980;BME280;54760;47.490;19.030;2023-04-10T03:30:58;100770.88;;;4.99;79.22
67980;BME280;54760;47.490;19.030;2023-04-10T03:33:23;100767.53;;;5.35;78.13
67980;BME280;54760;47.490;19.030;2023-04-10T03:35:49;100773.28;;;5.56;76.10
67980;BME280;54760;47.490;19.030;2023-04-10T03:38:14;100763.84;;;5.47;76.77
67980;BME280;54760;47.490;19.030;2023-04-10T03:40:40;100773.94;;;5.50;77.61
67980;BME280;54760;47.490;19.030;2023-04-10T03:43:20;100769.41;;;5.87;75.37
67980;BME280;54760;47.490;19.030;2023-04-10T03:45:46;100764.28;;;5.52;77.45
67980;BME280;54760;47.490;19.030;2023-04-10T03:48:11;100787.00;;;5.14;79.45
67980;BME280;54760;47.490;19.030;2023-04-10T03:50:37;100774.00;;;5.01;80.34
67980;BME280;54760;47.490;19.030;2023-04-10T03:53:02;100771.00;;;5.62;78.17
67980;BME280;54760;47.490;19.030;2023-04-10T03:55:28;100767.38;;;5.81;76.86
67980;BME280;54760;47.490;19.030;2023-04-10T03:57:53;100774.81;;;5.57;77.42
67980;BME280;54760;47.490;19.030;2023-04-10T04:00:19;100776.37;;;5.58;77.42
67980;BME280;54760;47.490;19.030;2023-04-10T04:02:45;100773.72;;;5.62;77.31
67980;BME280;54760;47.490;19.030;2023-04-10T04:05:11;100783.56;;;5.74;76.87
67980;BME280;54760;47.490;19.030;2023-04-10T04:07:36;100779.81;;;5.52;77.98
67980;BME280;54760;47.490;19.030;2023-04-10T04:10:02;100780.28;;;5.87;76.85
67980;BME280;54760;47.490;19.030;2023-04-10T04:12:28;100788.97;;;5.70;77.08
67980;BME280;54760;47.490;19.030;2023-04-10T04:14:53;100784.19;;;5.60;77.87
67980;BME280;54760;47.490;19.030;2023-04-10T04:17:18;100788.00;;;5.85;76.62
67980;BME280;54760;47.490;19.030;2023-04-10T04:19:44;100798.09;;;6.15;75.24
67980;BME280;54760;47.490;19.030;2023-04-10T04:22:10;100794.44;;;6.37;74.03
67980;BME280;54760;47.490;19.030;2023-04-10T04:24:35;100797.88;;;5.97;75.63
67980;BME280;54760;47.490;19.030;2023-04-10T04:27:01;100795.12;;;5.93;76.09
67980;BME280;54760;47.490;19.030;2023-04-10T04:29:27;100796.44;;;5.47;78.58
67980;BME280;54760;47.490;19.030;2023-04-10T04:31:52;100791.41;;;5.79;76.66
67980;BME280;54760;47.490;19.030;2023-04-10T04:34:18;100802.63;;;5.21;79.71
67980;BME280;54760;47.490;19.030;2023-04-10T04:36:43;100805.50;;;4.83;82.03
67980;BME280;54760;47.490;19.030;2023-04-10T04:39:08;100802.06;;;4.63;83.35
67980;BME280;54760;47.490;19.030;2023-04-10T04:41:34;100797.13;;;4.91;81.97
67980;BME280;54760;47.490;19.030;2023-04-10T04:44:00;100799.56;;;5.00;81.67
67980;BME280;54760;47.490;19.030;2023-04-10T04:46:26;100804.41;;;4.64;83.49
67980;BME280;54760;47.490;19.030;2023-04-10T04:48:51;100813.91;;;4.74;83.42
67980;BME280;54760;47.490;19.030;2023-04-10T04:51:17;100812.81;;;4.78;83.60
67980;BME280;54760;47.490;19.030;2023-04-10T04:53:42;100820.34;;;4.89;83.35
67980;BME280;54760;47.490;19.030;2023-04-10T04:56:08;100818.25;;;5.05;82.33
67980;BME280;54760;47.490;19.030;2023-04-10T04:58:33;100820.44;;;4.96;83.72
67980;BME280;54760;47.490;19.030;2023-04-10T05:00:59;100819.59;;;4.92;83.99
67980;BME280;54760;47.490;19.030;2023-04-10T05:03:25;100824.69;;;4.93;85.01
67980;BME280;54760;47.490;19.030;2023-04-10T05:05:52;100825.88;;;4.96;84.29
67980;BME280;54760;47.490;19.030;2023-04-10T05:08:18;100825.81;;;4.92;84.77
67980;BME280;54760;47.490;19.030;2023-04-10T05:10:44;100830.66;;;5.02;84.02
67980;BME280;54760;47.490;19.030;2023-04-10T05:13:09;100827.41;;;4.93;85.11
67980;BME280;54760;47.490;19.030;2023-04-10T05:15:35;100831.88;;;5.08;84.26
67980;BME280;54760;47.490;19.030;2023-04-10T05:18:00;100834.28;;;5.13;84.44
67980;BME280;54760;47.490;19.030;2023-04-10T05:20:25;100837.13;;;5.20;84.01
67980;BME280;54760;47.490;19.030;2023-04-10T05:22:51;100846.84;;;5.21;84.21
67980;BME280;54760;47.490;19.030;2023-04-10T05:25:17;100840.91;;;5.39;83.65
67980;BME280;54760;47.490;19.030;2023-04-10T05:27:43;100828.28;;;5.80;81.57
67980;BME280;54760;47.490;19.030;2023-04-10T05:30:08;100834.38;;;5.70;81.21
67980;BME280;54760;47.490;19.030;2023-04-10T05:32:34;100830.13;;;5.72;81.40
67980;BME280;54760;47.490;19.030;2023-04-10T05:34:59;100824.78;;;5.79;80.92
67980;BME280;54760;47.490;19.030;2023-04-10T05:37:25;100829.75;;;6.00;80.11
67980;BME280;54760;47.490;19.030;2023-04-10T05:39:51;100836.97;;;6.19;79.97
67980;BME280;54760;47.490;19.030;2023-04-10T05:42:16;100837.13;;;6.33;78.88
67980;BME280;54760;47.490;19.030;2023-04-10T05:44:43;100830.03;;;6.58;77.64
67980;BME280;54760;47.490;19.030;2023-04-10T05:47:09;100841.25;;;6.93;76.44
67980;BME280;54760;47.490;19.030;2023-04-10T05:49:34;100833.00;;;6.86;76.35
67980;BME280;54760;47.490;19.030;2023-04-10T05:52:00;100830.88;;;7.10;75.52
67980;BME280;54760;47.490;19.030;2023-04-10T05:54:25;100824.63;;;7.06;75.27
67980;BME280;54760;47.490;19.030;2023-04-10T05:56:51;100824.69;;;7.13;75.26
67980;BME280;54760;47.490;19.030;2023-04-10T05:59:16;100827.41;;;7.13;75.28
67980;BME280;54760;47.490;19.030;2023-04-10T06:01:43;100823.22;;;7.29;74.37
67980;BME280;54760;47.490;19.030;2023-04-10T06:04:09;100826.22;;;7.68;73.00
67980;BME280;54760;47.490;19.030;2023-04-10T06:06:35;100820.75;;;7.68;72.81
67980;BME280;54760;47.490;19.030;2023-04-10T06:09:00;100822.56;;;8.22;70.51
67980;BME280;54760;47.490;19.030;2023-04-10T06:11:26;100829.34;;;8.75;68.22
67980;BME280;54760;47.490;19.030;2023-04-10T06:13:51;100823.50;;;9.47;66.63
67980;BME280;54760;47.490;19.030;2023-04-10T06:16:17;100820.63;;;9.93;63.76
67980;BME280;54760;47.490;19.030;2023-04-10T06:18:42;100826.66;;;10.47;61.88
67980;BME280;54760;47.490;19.030;2023-04-10T06:21:08;100823.31;;;10.80;60.47
67980;BME280;54760;47.490;19.030;2023-04-10T06:23:33;100819.00;;;11.30;58.46
67980;BME280;54760;47.490;19.030;2023-04-10T06:26:00;100817.91;;;11.99;56.60
67980;BME280;54760;47.490;19.030;2023-04-10T06:28:25;100822.78;;;12.72;53.91
67980;BME280;54760;47.490;19.030;2023-04-10T06:30:51;100816.16;;;12.12;55.02
67980;BME280;54760;47.490;19.030;2023-04-10T06:33:16;100815.88;;;12.03;55.60
67980;BME280;54760;47.490;19.030;2023-04-10T06:35:42;100817.66;;;11.87;55.77
67980;BME280;54760;47.490;19.030;2023-04-10T06:38:07;100815.28;;;11.89;55.63
67980;BME280;54760;47.490;19.030;2023-04-10T06:40:33;100818.12;;;12.12;55.32
67980;BME280;54760;47.490;19.030;2023-04-10T06:42:59;100818.78;;;12.23;54.91
67980;BME280;54760;47.490;19.030;2023-04-10T06:45:25;100824.59;;;12.29;54.77
67980;BME280;54760;47.490;19.030;2023-04-10T06:47:51;100815.47;;;12.62;53.63
67980;BME280;54760;47.490;19.030;2023-04-10T06:50:16;100819.97;;;13.02;52.94
67980;BME280;54760;47.490;19.030;2023-04-10T06:52:43;100827.81;;;13.04;52.69
67980;BME280;54760;47.490;19.030;2023-04-10T06:55:09;100818.94;;;13.63;50.88
67980;BME280;54760;47.490;19.030;2023-04-10T06:57:37;100812.12;;;13.91;49.82
67980;BME280;54760;47.490;19.030;2023-04-10T07:00:03;100811.81;;;15.41;46.81
67980;BME280;54760;47.490;19.030;2023-04-10T07:02:28;100804.59;;;17.06;42.49
67980;BME280;54760;47.490;19.030;2023-04-10T07:04:54;100799.66;;;17.92;40.14
67980;BME280;54760;47.490;19.030;2023-04-10T07:07:21;100802.47;;;18.53;38.29
67980;BME280;54760;47.490;19.030;2023-04-10T07:09:48;100801.28;;;18.64;36.61
67980;BME280;54760;47.490;19.030;2023-04-10T07:12:33;100800.50;;;16.98;38.80
67980;BME280;54760;47.490;19.030;2023-04-10T07:14:58;100801.84;;;18.28;36.86
67980;BME280;54760;47.490;19.030;2023-04-10T07:17:23;100803.31;;;18.10;36.12
67980;BME280;54760;47.490;19.030;2023-04-10T07:19:49;100800.25;;;17.52;37.28
67980;BME280;54760;47.490;19.030;2023-04-10T07:22:14;100800.09;;;17.90;36.33
67980;BME280;54760;47.490;19.030;2023-04-10T07:24:40;100794.31;;;19.35;34.45
67980;BME280;54760;47.490;19.030;2023-04-10T07:27:06;100785.56;;;19.55;33.21
67980;BME280;54760;47.490;19.030;2023-04-10T07:29:31;100789.75;;;19.51;33.49
67980;BME280;54760;47.490;19.030;2023-04-10T07:31:57;100782.66;;;19.59;33.14
67980;BME280;54760;47.490;19.030;2023-04-10T07:34:22;100787.75;;;20.29;34.38
67980;BME280;54760;47.490;19.030;2023-04-10T07:36:48;100789.25;;;20.82;32.09
67980;BME280;54760;47.490;19.030;2023-04-10T07:39:14;100780.59;;;19.86;31.31
67980;BME280;54760;47.490;19.030;2023-04-10T07:41:39;100783.91;;;20.27;31.46
67980;BME280;54760;47.490;19.030;2023-04-10T07:44:05;100789.25;;;19.79;31.87
67980;BME280;54760;47.490;19.030;2023-04-10T07:46:30;100777.22;;;19.92;31.52
67980;BME280;54760;47.490;19.030;2023-04-10T07:48:56;100775.91;;;20.20;30.82
67980;BME280;54760;47.490;19.030;2023-04-10T07:51:22;100768.38;;;21.10;29.47
67980;BME280;54760;47.490;19.030;2023-04-10T07:53:47;100766.41;;;21.64;29.24
67980;BME280;54760;47.490;19.030;2023-04-10T07:56:17;100769.59;;;21.86;28.29
67980;BME280;54760;47.490;19.030;2023-04-10T07:58:43;100766.03;;;21.08;29.04
67980;BME280;54760;47.490;19.030;2023-04-10T08:01:08;100769.22;;;20.68;29.82
67980;BME280;54760;47.490;19.030;2023-04-10T08:03:41;100759.50;;;21.88;28.12
67980;BME280;54760;47.490;19.030;2023-04-10T08:06:07;100770.78;;;19.49;31.05
67980;BME280;54760;47.490;19.030;2023-04-10T08:08:35;100772.87;;;19.09;32.14
67980;BME280;54760;47.490;19.030;2023-04-10T08:11:01;100775.25;;;19.74;31.32
67980;BME280;54760;47.490;19.030;2023-04-10T08:13:26;100770.00;;;20.36;33.83
67980;BME280;54760;47.490;19.030;2023-04-10T08:15:52;100760.78;;;22.02;30.81
67980;BME280;54760;47.490;19.030;2023-04-10T08:18:17;100757.25;;;21.48;32.73
67980;BME280;54760;47.490;19.030;2023-04-10T08:20:43;100768.06;;;22.99;29.93
67980;BME280;54760;47.490;19.030;2023-04-10T08:23:08;100764.38;;;23.07;26.23
67980;BME280;54760;47.490;19.030;2023-04-10T08:25:33;100760.16;;;24.41;25.29
67980;BME280;54760;47.490;19.030;2023-04-10T08:27:59;100762.09;;;25.09;23.46
67980;BME280;54760;47.490;19.030;2023-04-10T08:30:24;100752.97;;;23.51;24.04
67980;BME280;54760;47.490;19.030;2023-04-10T08:32:50;100756.03;;;25.27;22.33
67980;BME280;54760;47.490;19.030;2023-04-10T08:35:15;100749.25;;;25.50;20.32
67980;BME280;54760;47.490;19.030;2023-04-10T08:37:41;100752.31;;;24.13;21.30
67980;BME280;54760;47.490;19.030;2023-04-10T08:40:06;100751.91;;;25.06;21.03
67980;BME280;54760;47.490;19.030;2023-04-10T08:42:32;100748.47;;;26.89;19.81
67980;BME280;54760;47.490;19.030;2023-04-10T08:44:57;100742.47;;;26.23;19.94
67980;BME280;54760;47.490;19.030;2023-04-10T08:47:26;100749.22;;;24.85;21.18
67980;BME280;54760;47.490;19.030;2023-04-10T08:49:56;100740.44;;;26.24;19.84
67980;BME280;54760;47.490;19.030;2023-04-10T08:52:24;100733.16;;;25.34;20.99
67980;BME280;54760;47.490;19.030;2023-04-10T08:54:53;100743.59;;;24.37;22.07
67980;BME280;54760;47.490;19.030;2023-04-10T08:57:19;100743.97;;;26.08;20.25
67980;BME280;54760;47.490;19.030;2023-04-10T08:59:49;100749.53;;;25.63;20.05
67980;BME280;54760;47.490;19.030;2023-04-10T09:02:16;100741.28;;;25.32;20.52
67980;BME280;54760;47.490;19.030;2023-04-10T09:04:48;100742.03;;;25.32;20.77
67980;BME280;54760;47.490;19.030;2023-04-10T09:07:18;100739.34;;;24.16;21.52
67980;BME280;54760;47.490;19.030;2023-04-10T09:09:44;100734.22;;;24.14;22.04
67980;BME280;54760;47.490;19.030;2023-04-10T09:12:10;100728.72;;;24.57;21.55
67980;BME280;54760;47.490;19.030;2023-04-10T09:14:36;100723.22;;;24.79;20.96
67980;BME280;54760;47.490;19.030;2023-04-10T09:17:22;100729.28;;;23.98;21.51
67980;BME280;54760;47.490;19.030;2023-04-10T09:19:49;100729.50;;;23.43;22.75
67980;BME280;54760;47.490;19.030;2023-04-10T09:22:17;100725.16;;;23.88;22.10
67980;BME280;54760;47.490;19.030;2023-04-10T09:24:44;100734.78;;;22.95;23.10
67980;BME280;54760;47.490;19.030;2023-04-10T09:27:10;100720.09;;;22.60;24.00
67980;BME280;54760;47.490;19.030;2023-04-10T09:29:50;100728.66;;;22.56;24.29
67980;BME280;54760;47.490;19.030;2023-04-10T09:32:43;100714.03;;;24.68;22.46
67980;BME280;54760;47.490;19.030;2023-04-10T09:35:10;100710.19;;;24.65;21.99
67980;BME280;54760;47.490;19.030;2023-04-10T09:37:37;100705.44;;;27.16;19.98
67980;BME280;54760;47.490;19.030;2023-04-10T09:40:03;100699.84;;;25.80;20.66
67980;BME280;54760;47.490;19.030;2023-04-10T09:42:36;100708.13;;;24.60;23.12
67980;BME280;54760;47.490;19.030;2023-04-10T09:45:02;100693.66;;;23.42;23.38
67980;BME280;54760;47.490;19.030;2023-04-10T09:47:29;100695.94;;;23.17;23.23
67980;BME280;54760;47.490;19.030;2023-04-10T09:49:58;100705.22;;;21.84;24.87
67980;BME280;54760;47.490;19.030;2023-04-10T09:52:26;100696.94;;;21.75;25.83
67980;BME280;54760;47.490;19.030;2023-04-10T09:54:57;100691.00;;;22.66;24.82
67980;BME280;54760;47.490;19.030;2023-04-10T09:57:24;100679.31;;;24.11;23.18
67980;BME280;54760;47.490;19.030;2023-04-10T09:59:52;100694.28;;;23.77;23.37
67980;BME280;54760;47.490;19.030;2023-04-10T10:02:19;100691.91;;;21.20;26.51
67980;BME280;54760;47.490;19.030;2023-04-10T10:04:46;100676.16;;;22.05;24.49
67980;BME280;54760;47.490;19.030;2023-04-10T10:07:16;100675.22;;;22.08;24.27
67980;BME280;54760;47.490;19.030;2023-04-10T10:09:43;100678.66;;;20.67;26.49
67980;BME280;54760;47.490;19.030;2023-04-10T10:12:10;100690.87;;;19.35;28.57
67980;BME280;54760;47.490;19.030;2023-04-10T10:17:17;100697.25;;;17.36;31.71
67980;BME280;54760;47.490;19.030;2023-04-10T10:19:55;100694.94;;;17.12;32.08
67980;BME280;54760;47.490;19.030;2023-04-10T10:22:26;100686.78;;;16.96;31.98
67980;BME280;54760;47.490;19.030;2023-04-10T10:24:53;100686.75;;;17.30;31.79
67980;BME280;54760;47.490;19.030;2023-04-10T10:27:22;100685.22;;;16.73;32.81
67980;BME280;54760;47.490;19.030;2023-04-10T10:29:48;100680.97;;;16.22;33.53
67980;BME280;54760;47.490;19.030;2023-04-10T10:32:16;100676.09;;;16.26;33.37
67980;BME280;54760;47.490;19.030;2023-04-10T10:34:43;100679.25;;;16.50;33.27
67980;BME280;54760;47.490;19.030;2023-04-10T10:37:09;100681.84;;;16.31;33.74
67980;BME280;54760;47.490;19.030;2023-04-10T10:39:48;100673.44;;;16.22;34.12
67980;BME280;54760;47.490;19.030;2023-04-10T10:42:29;100685.69;;;15.96;34.86
67980;BME280;54760;47.490;19.030;2023-04-10T10:45:08;100678.75;;;16.17;34.29
67980;BME280;54760;47.490;19.030;2023-04-10T10:47:41;100673.31;;;16.26;34.68
67980;BME280;54760;47.490;19.030;2023-04-10T10:50:09;100674.94;;;15.60;35.42
67980;BME280;54760;47.490;19.030;2023-04-10T10:57:47;100672.09;;;15.64;35.74
67980;BME280;54760;47.490;19.030;2023-04-10T11:00:16;100675.38;;;15.30;36.40
67980;BME280;54760;47.490;19.030;2023-04-10T11:02:42;100668.41;;;15.25;36.91
67980;BME280;54760;47.490;19.030;2023-04-10T11:05:07;100670.09;;;15.06;36.84
67980;BME280;54760;47.490;19.030;2023-04-10T11:11:01;100673.34;;;15.17;37.70
67980;BME280;54760;47.490;19.030;2023-04-10T11:13:27;100674.16;;;15.31;37.82
67980;BME280;54760;47.490;19.030;2023-04-10T11:15:55;100679.28;;;15.16;37.69
67980;BME280;54760;47.490;19.030;2023-04-10T11:21:19;100663.38;;;15.78;36.86
67980;BME280;54760;47.490;19.030;2023-04-10T11:31:38;100658.38;;;15.31;38.11
67980;BME280;54760;47.490;19.030;2023-04-10T11:34:06;100665.75;;;15.22;38.97
67980;BME280;54760;47.490;19.030;2023-04-10T11:36:42;100649.34;;;15.02;38.96
67980;BME280;54760;47.490;19.030;2023-04-10T11:39:10;100658.75;;;15.33;40.71
67980;BME280;54760;47.490;19.030;2023-04-10T11:41:40;100662.81;;;15.00;39.84
67980;BME280;54760;47.490;19.030;2023-04-10T11:44:09;100660.06;;;15.00;39.61
67980;BME280;54760;47.490;19.030;2023-04-10T11:46:41;100662.12;;;14.96;39.86
67980;BME280;54760;47.490;19.030;2023-04-10T11:49:08;100662.84;;;15.12;39.77
67980;BME280;54760;47.490;19.030;2023-04-10T11:51:34;100656.66;;;15.08;40.23
67980;BME280;54760;47.490;19.030;2023-04-10T11:54:08;100666.41;;;14.97;40.21
67980;BME280;54760;47.490;19.030;2023-04-10T11:56:39;100661.75;;;15.10;40.57
67980;BME280;54760;47.490;19.030;2023-04-10T11:59:05;100662.28;;;15.05;40.29
67980;BME280;54760;47.490;19.030;2023-04-10T12:01:34;100661.50;;;14.76;40.63
67980;BME280;54760;47.490;19.030;2023-04-10T12:03:59;100666.66;;;15.02;40.71
67980;BME280;54760;47.490;19.030;2023-04-10T12:06:26;100664.78;;;14.99;41.00
67980;BME280;54760;47.490;19.030;2023-04-10T12:08:52;100663.00;;;14.77;44.16
67980;BME280;54760;47.490;19.030;2023-04-10T12:11:22;100653.16;;;14.92;45.27
67980;BME280;54760;47.490;19.030;2023-04-10T12:13:52;100655.47;;;15.09;44.58
67980;BME280;54760;47.490;19.030;2023-04-10T12:16:18;100649.41;;;15.14;43.93
67980;BME280;54760;47.490;19.030;2023-04-10T12:18:43;100645.25;;;15.23;44.29
67980;BME280;54760;47.490;19.030;2023-04-10T12:21:09;100637.84;;;15.61;43.77
67980;BME280;54760;47.490;19.030;2023-04-10T12:23:37;100634.16;;;15.39;41.04
67980;BME280;54760;47.490;19.030;2023-04-10T12:26:16;100638.34;;;15.43;41.39
67980;BME280;54760;47.490;19.030;2023-04-10T12:28:50;100633.44;;;15.22;40.94
67980;BME280;54760;47.490;19.030;2023-04-10T12:31:15;100639.34;;;14.79;42.20
67980;BME280;54760;47.490;19.030;2023-04-10T12:33:47;100638.22;;;14.77;42.19
67980;BME280;54760;47.490;19.030;2023-04-10T12:36:20;100636.53;;;14.50;42.70
67980;BME280;54760;47.490;19.030;2023-04-10T12:38:46;100625.59;;;14.30;43.22
67980;BME280;54760;47.490;19.030;2023-04-10T12:41:11;100623.63;;;14.31;43.82
67980;BME280;54760;47.490;19.030;2023-04-10T12:43:38;100618.81;;;14.51;43.23
67980;BME280;54760;47.490;19.030;2023-04-10T12:46:06;100598.34;;;15.10;42.09
67980;BME280;54760;47.490;19.030;2023-04-10T12:48:32;100596.25;;;15.81;40.79
67980;BME280;54760;47.490;19.030;2023-04-10T12:50:58;100593.03;;;15.82;40.47
67980;BME280;54760;47.490;19.030;2023-04-10T12:53:25;100583.09;;;15.85;40.21
67980;BME280;54760;47.490;19.030;2023-04-10T12:56:01;100579.87;;;15.99;39.67
67980;BME280;54760;47.490;19.030;2023-04-10T12:58:28;100576.91;;;15.93;39.86
67980;BME280;54760;47.490;19.030;2023-04-10T13:00:56;100581.31;;;16.51;39.12
67980;BME280;54760;47.490;19.030;2023-04-10T13:03:22;100566.06;;;17.24;37.22
67980;BME280;54760;47.490;19.030;2023-04-10T13:05:48;100559.22;;;17.38;36.77
67980;BME280;54760;47.490;19.030;2023-04-10T13:08:13;100562.34;;;17.80;36.18
67980;BME280;54760;47.490;19.030;2023-04-10T13:10:39;100551.41;;;17.76;36.79
67980;BME280;54760;47.490;19.030;2023-04-10T13:13:06;100552.72;;;17.31;36.42
67980;BME280;54760;47.490;19.030;2023-04-10T13:15:32;100552.78;;;17.41;36.76